Time;durP1;ratioP1;P1;durP2;ratioP2;P2;SDS_P1;SDS_P2;PMS_P1;PMS_P2;Temp;Humidity;BMP_temperature;BMP_pressure;BME280_temperature;BME280_humidity;BME280_pressure;Samples;Min_cycle;Max_cycle;Signal;HPM_P1;HPM_P2
2021/09/22 00:01:13;;;;;;;;;;;;;;;28.30;33.94;101337.94;5055207;28;1922;-28
2021/09/22 00:03:38;;;;;;;;;;;;;;;28.39;33.76;101336.06;5055708;28;933;-27
2021/09/22 00:06:03;;;;;;;;;;;;;;;28.38;33.77;101337.09;5055507;28;998;-27
2021/09/22 00:08:29;;;;;;;;;;;;;;;28.26;33.92;101329.34;5035798;28;932;-33
2021/09/22 00:10:54;;;;;;;;;;;;;;;28.26;34.07;101331.22;5035364;28;827;-27
2021/09/22 00:13:19;;;;;;;;;;;;;;;28.28;34.15;101332.72;5035927;28;756;-33
2021/09/22 00:15:44;;;;;;;;;;;;;;;28.17;34.25;101328.56;5035524;28;792;-28
2021/09/22 00:18:10;;;;;;;;;;;;;;;28.16;34.54;101326.03;5035651;28;764;-27
2021/09/22 00:20:35;;;;;;;;;;;;;;;28.13;34.32;101329.09;5035814;28;1910;-28
2021/09/22 00:23:00;;;;;;;;;;;;;;;28.13;34.62;101318.25;5051450;28;987;-28
2021/09/22 00:25:28;;;;;;;;;;;;;;;28.16;34.61;101302.50;5055593;28;805;-27
2021/09/22 00:27:53;;;;;;;;;;;;;;;28.07;34.47;101300.88;5055940;28;779;-31
2021/09/22 00:30:19;;;;;;;;;;;;;;;28.15;34.57;101305.38;5055035;28;827;-33
2021/09/22 00:32:47;;;;;;;;;;;;;;;28.19;34.42;101294.06;5055045;28;677;-27
2021/09/22 00:35:13;;;;;;;;;;;;;;;28.15;34.46;101300.81;5055756;28;834;-28
2021/09/22 00:37:38;;;;;;;;;;;;;;;28.17;34.71;101290.69;5053507;28;978;-27
2021/09/22 00:40:04;;;;;;;;;;;;;;;28.13;34.76;101283.09;5055421;28;1938;-28
2021/09/22 00:42:29;;;;;;;;;;;;;;;28.10;35.05;101289.69;5055300;28;814;-32
2021/09/22 00:44:56;;;;;;;;;;;;;;;28.07;35.00;101280.09;5054702;28;831;-27
2021/09/22 00:47:21;;;;;;;;;;;;;;;28.04;34.89;101280.44;5055596;28;1144;-28
2021/09/22 00:49:47;;;;;;;;;;;;;;;28.00;35.38;101276.38;5055532;28;759;-27
2021/09/22 00:52:13;;;;;;;;;;;;;;;28.09;35.27;101275.31;5054194;28;1198;-28
2021/09/22 00:54:38;;;;;;;;;;;;;;;28.05;35.26;101273.16;5054443;28;760;-27
2021/09/22 00:57:03;;;;;;;;;;;;;;;28.03;35.24;101277.91;5055081;28;835;-27
2021/09/22 00:59:30;;;;;;;;;;;;;;;28.02;35.09;101277.06;5054846;28;795;-28
2021/09/22 01:01:55;;;;;;;;;;;;;;;28.07;35.34;101266.56;5055130;28;1891;-28
2021/09/22 01:04:20;;;;;;;;;;;;;;;27.98;35.47;101267.59;5055411;28;749;-32
2021/09/22 01:06:45;;;;;;;;;;;;;;;28.10;35.13;101265.34;5053682;28;987;-28
2021/09/22 01:09:11;;;;;;;;;;;;;;;28.15;35.21;101273.78;5058446;28;823;-27
2021/09/22 01:11:36;;;;;;;;;;;;;;;28.13;35.14;101270.41;5058824;28;794;-27
2021/09/22 01:14:02;;;;;;;;;;;;;;;28.18;34.95;101270.72;5058802;28;805;-27
2021/09/22 01:16:27;;;;;;;;;;;;;;;28.13;35.09;101270.41;5058883;28;755;-27
2021/09/22 01:18:52;;;;;;;;;;;;;;;28.17;35.07;101270.91;5058701;28;787;-27
2021/09/22 01:21:18;;;;;;;;;;;;;;;28.09;35.35;101272.59;5057166;28;1905;-28
2021/09/22 01:23:44;;;;;;;;;;;;;;;28.11;35.34;101265.16;5058410;28;823;-27
2021/09/22 01:26:09;;;;;;;;;;;;;;;28.11;35.04;101258.94;5058682;28;767;-27
2021/09/22 01:28:34;;;;;;;;;;;;;;;28.22;35.00;101250.41;5058684;28;744;-27
2021/09/22 01:31:00;;;;;;;;;;;;;;;28.14;35.26;101258.56;5058052;28;1020;-32
2021/09/22 01:33:25;;;;;;;;;;;;;;;28.15;35.21;101256.69;5058577;28;776;-28
2021/09/22 01:35:51;;;;;;;;;;;;;;;28.09;35.38;101256.38;5057059;28;756;-28
2021/09/22 01:38:20;;;;;;;;;;;;;;;28.14;35.10;101244.22;5056246;28;955;-28
2021/09/22 01:41:06;;;;;;;;;;;;;;;27.46;35.41;101138.25;5058285;28;1972;-27
2021/09/22 01:43:31;;;;;;;;;;;;;;;28.14;35.42;101250.47;5057561;28;1830;-28
2021/09/22 01:45:58;;;;;;;;;;;;;;;28.16;35.43;101234.88;5058175;28;803;-28
2021/09/22 01:48:23;;;;;;;;;;;;;;;28.23;35.13;101241.28;5042162;28;1119;-30
2021/09/22 01:50:49;;;;;;;;;;;;;;;28.22;35.24;101252.28;5038540;28;831;-28
2021/09/22 01:53:14;;;;;;;;;;;;;;;28.27;35.24;101244.47;5049809;28;1060;-28
2021/09/22 01:55:40;;;;;;;;;;;;;;;28.19;35.19;101252.63;5057995;28;779;-28
2021/09/22 01:58:05;;;;;;;;;;;;;;;28.32;35.07;101254.75;5058194;28;823;-28
2021/09/22 02:00:30;;;;;;;;;;;;;;;28.22;35.05;101249.56;5057367;28;2036;-31
2021/09/22 02:02:55;;;;;;;;;;;;;;;28.22;35.24;101254.97;5057800;28;796;-28
2021/09/22 02:05:21;;;;;;;;;;;;;;;28.20;35.20;101249.75;5057774;28;909;-28
2021/09/22 02:07:46;;;;;;;;;;;;;;;28.23;35.14;101257.50;5043665;28;971;-27
2021/09/22 02:10:11;;;;;;;;;;;;;;;28.30;34.97;101249.50;5037528;28;776;-28
2021/09/22 02:12:37;;;;;;;;;;;;;;;28.30;35.04;101248.66;5037726;28;812;-28
2021/09/22 02:15:02;;;;;;;;;;;;;;;28.19;35.42;101250.78;5037244;28;894;-33
2021/09/22 02:17:27;;;;;;;;;;;;;;;28.29;34.98;101255.09;5037756;28;831;-27
2021/09/22 02:19:53;;;;;;;;;;;;;;;28.18;35.41;101261.75;5037209;28;780;-32
2021/09/22 02:22:18;;;;;;;;;;;;;;;28.21;35.44;101258.72;5047514;28;1901;-28
2021/09/22 02:24:44;;;;;;;;;;;;;;;28.19;35.59;101263.44;5057288;28;1016;-28
2021/09/22 02:27:12;;;;;;;;;;;;;;;28.28;35.31;101256.97;5057321;28;783;-28
2021/09/22 02:29:38;;;;;;;;;;;;;;;28.34;34.90;101250.84;5056666;28;1051;-28
2021/09/22 02:32:04;;;;;;;;;;;;;;;28.24;35.28;101253.75;5057750;28;740;-28
2021/09/22 02:34:29;;;;;;;;;;;;;;;28.29;35.33;101252.41;5057449;28;824;-33
2021/09/22 02:36:54;;;;;;;;;;;;;;;28.32;35.25;101246.63;5055259;28;1002;-27
2021/09/22 02:39:20;;;;;;;;;;;;;;;28.33;35.09;101248.34;5057159;28;823;-28
2021/09/22 02:41:45;;;;;;;;;;;;;;;28.17;35.66;101262.78;5057207;28;1961;-28
2021/09/22 02:44:10;;;;;;;;;;;;;;;28.19;35.36;101258.03;5056429;28;887;-27
2021/09/22 02:46:35;;;;;;;;;;;;;;;28.17;35.75;101243.84;5057192;28;1219;-28
2021/09/22 02:49:01;;;;;;;;;;;;;;;28.19;35.79;101249.94;5057087;28;804;-32
2021/09/22 02:51:26;;;;;;;;;;;;;;;28.23;35.76;101249.38;5055944;28;947;-28
2021/09/22 02:53:51;;;;;;;;;;;;;;;28.38;35.52;101245.94;5056735;28;1174;-27
2021/09/22 02:56:17;;;;;;;;;;;;;;;28.30;35.27;101244.09;5057100;28;811;-27
2021/09/22 02:58:42;;;;;;;;;;;;;;;28.34;35.38;101245.44;5056312;28;1075;-28
2021/09/22 03:01:07;;;;;;;;;;;;;;;28.34;35.56;101240.03;5056727;28;1970;-27
2021/09/22 03:03:32;;;;;;;;;;;;;;;28.35;35.48;101240.88;5057070;28;768;-27
2021/09/22 03:05:58;;;;;;;;;;;;;;;28.27;35.71;101236.34;5056086;28;886;-27
2021/09/22 03:08:23;;;;;;;;;;;;;;;28.22;35.89;101236.03;5055284;28;959;-27
2021/09/22 03:10:48;;;;;;;;;;;;;;;28.20;35.82;101241.63;5056880;28;744;-27
2021/09/22 03:13:14;;;;;;;;;;;;;;;28.31;35.79;101234.94;5055676;28;755;-27
2021/09/22 03:15:39;;;;;;;;;;;;;;;28.06;36.32;101229.69;5057246;28;748;-30
2021/09/22 03:18:04;;;;;;;;;;;;;;;27.76;34.45;101226.81;5056206;28;775;-30
2021/09/22 03:20:29;;;;;;;;;;;;;;;26.74;27.35;101229.03;5056079;28;1902;-30
2021/09/22 03:22:55;;;;;;;;;;;;;;;26.15;28.49;101226.22;5054856;28;955;-31
2021/09/22 03:25:20;;;;;;;;;;;;;;;25.88;29.67;101222.78;5056346;28;764;-30
2021/09/22 03:27:45;;;;;;;;;;;;;;;25.77;29.62;101213.16;5056027;28;827;-29
2021/09/22 03:30:11;;;;;;;;;;;;;;;25.61;28.90;101207.66;5056028;28;835;-29
2021/09/22 03:32:36;;;;;;;;;;;;;;;25.32;29.24;101215.06;5055745;28;752;-32
2021/09/22 03:35:02;;;;;;;;;;;;;;;25.11;29.46;101208.22;5055501;28;811;-32
2021/09/22 03:37:27;;;;;;;;;;;;;;;25.05;28.84;101207.00;5054850;28;956;-27
2021/09/22 03:39:52;;;;;;;;;;;;;;;24.96;29.22;101209.81;5056254;28;779;-32
2021/09/22 03:42:18;;;;;;;;;;;;;;;24.78;29.67;101206.09;5055714;28;1973;-27
2021/09/22 03:44:43;;;;;;;;;;;;;;;24.68;29.85;101218.78;5055479;28;808;-32
2021/09/22 03:47:08;;;;;;;;;;;;;;;24.72;31.31;101213.94;5050582;28;1037;-33
2021/09/22 03:49:34;;;;;;;;;;;;;;;25.05;32.24;101216.91;5036138;28;852;-28
2021/09/22 03:51:59;;;;;;;;;;;;;;;25.33;31.84;101221.28;5036161;28;1434;-28
2021/09/22 03:54:24;;;;;;;;;;;;;;;25.80;31.12;101231.69;5055972;28;788;-27
2021/09/22 03:56:50;;;;;;;;;;;;;;;25.96;31.00;101230.03;5055741;28;832;-28
2021/09/22 03:59:15;;;;;;;;;;;;;;;25.98;30.68;101225.31;5055529;28;855;-28
2021/09/22 04:01:40;;;;;;;;;;;;;;;26.00;30.80;101217.06;5055553;28;1906;-37
2021/09/22 04:04:05;;;;;;;;;;;;;;;26.02;30.76;101209.66;5055786;28;779;-31
2021/09/22 04:06:31;;;;;;;;;;;;;;;26.21;30.61;101202.31;5054155;28;820;-33
2021/09/22 04:08:56;;;;;;;;;;;;;;;26.16;31.18;101205.47;5055232;28;726;-35
2021/09/22 04:11:21;;;;;;;;;;;;;;;24.58;29.49;101205.44;5048085;28;1221;-31
2021/09/22 04:13:47;;;;;;;;;;;;;;;24.24;30.84;101217.69;5054879;28;893;-29
2021/09/22 04:16:12;;;;;;;;;;;;;;;23.69;30.76;101214.03;5054824;28;803;-30
2021/09/22 04:18:37;;;;;;;;;;;;;;;23.96;30.98;101220.41;5054825;28;812;-28
2021/09/22 04:21:03;;;;;;;;;;;;;;;23.90;31.43;101221.00;5054488;28;1901;-26
2021/09/22 04:23:28;;;;;;;;;;;;;;;23.99;30.65;101209.34;5036515;28;1116;-27
2021/09/22 04:25:53;;;;;;;;;;;;;;;23.58;30.70;101210.56;5054956;28;831;-33
2021/09/22 04:28:19;;;;;;;;;;;;;;;23.64;31.21;101209.09;5054654;28;843;-30
2021/09/22 04:30:44;;;;;;;;;;;;;;;23.44;31.73;101209.19;5054535;28;820;-28
2021/09/22 04:33:09;;;;;;;;;;;;;;;23.15;31.33;101218.16;5054873;28;866;-29
2021/09/22 04:35:35;;;;;;;;;;;;;;;23.52;31.25;101219.19;5054309;28;795;-30
2021/09/22 04:38:00;;;;;;;;;;;;;;;23.70;31.13;101213.91;5053303;28;916;-28
2021/09/22 04:40:29;;;;;;;;;;;;;;;23.97;31.00;101216.72;5054271;28;1901;-27
2021/09/22 04:42:55;;;;;;;;;;;;;;;24.10;30.71;101219.06;5056878;28;787;-28
2021/09/22 04:45:22;;;;;;;;;;;;;;;24.21;30.41;101218.88;5058632;28;774;-29
2021/09/22 04:47:47;;;;;;;;;;;;;;;24.05;30.92;101226.72;5058482;28;1084;-28
2021/09/22 04:50:13;;;;;;;;;;;;;;;23.82;31.82;101235.19;5040463;28;815;-28
2021/09/22 04:52:38;;;;;;;;;;;;;;;23.94;32.03;101238.53;5058062;28;1148;-28
2021/09/22 04:55:04;;;;;;;;;;;;;;;24.12;31.28;101237.72;5058654;28;791;-32
2021/09/22 04:57:29;;;;;;;;;;;;;;;24.06;32.12;101231.94;5058002;28;813;-28
2021/09/22 04:59:54;;;;;;;;;;;;;;;24.12;31.41;101225.13;5058539;28;843;-29
2021/09/22 05:02:19;;;;;;;;;;;;;;;24.18;31.45;101226.38;5058420;28;1976;-28
2021/09/22 05:04:45;;;;;;;;;;;;;;;24.11;31.53;101230.66;5058514;28;764;-32
2021/09/22 05:07:10;;;;;;;;;;;;;;;23.90;31.94;101237.13;5056830;28;978;-28
2021/09/22 05:09:35;;;;;;;;;;;;;;;23.90;32.23;101235.28;5058377;28;740;-31
2021/09/22 05:12:01;;;;;;;;;;;;;;;23.91;32.84;101230.75;5057502;28;851;-34
2021/09/22 05:14:26;;;;;;;;;;;;;;;24.09;32.13;101226.25;5058207;28;1477;-31
2021/09/22 05:16:52;;;;;;;;;;;;;;;24.29;31.77;101223.47;5058293;28;853;-30
2021/09/22 05:19:19;;;;;;;;;;;;;;;24.36;31.83;101229.09;5057839;28;843;-28
2021/09/22 05:21:44;;;;;;;;;;;;;;;24.43;31.35;101224.81;5056246;28;1965;-31
2021/09/22 05:24:10;;;;;;;;;;;;;;;24.33;31.42;101226.72;5058478;28;831;-30
2021/09/22 05:26:35;;;;;;;;;;;;;;;24.30;31.43;101219.81;5057320;28;756;-33
2021/09/22 05:29:03;;;;;;;;;;;;;;;24.42;31.00;101222.25;5058414;28;760;-32
2021/09/22 05:31:29;;;;;;;;;;;;;;;24.31;31.63;101228.69;5057707;28;527;-29
2021/09/22 05:33:57;;;;;;;;;;;;;;;24.08;31.50;101234.47;5057554;28;767;-34
2021/09/22 05:36:25;;;;;;;;;;;;;;;24.08;31.83;101232.66;5056156;28;931;-28
2021/09/22 05:38:51;;;;;;;;;;;;;;;24.18;31.70;101246.06;5057725;28;807;-29
2021/09/22 05:41:16;;;;;;;;;;;;;;;24.26;32.08;101231.00;5056642;28;1963;-31
2021/09/22 05:43:41;;;;;;;;;;;;;;;24.42;31.50;101235.72;5037924;28;807;-30
2021/09/22 05:46:06;;;;;;;;;;;;;;;24.38;31.43;101240.53;5037656;28;803;-29
2021/09/22 05:48:32;;;;;;;;;;;;;;;24.32;31.42;101233.09;5053964;28;1191;-33
2021/09/22 05:50:58;;;;;;;;;;;;;;;24.49;31.51;101238.63;5057554;28;854;-29
2021/09/22 05:53:23;;;;;;;;;;;;;;;24.54;30.99;101229.09;5054516;28;1226;-30
2021/09/22 05:55:50;;;;;;;;;;;;;;;24.60;30.96;101219.56;5057112;28;978;-30
2021/09/22 05:58:19;;;;;;;;;;;;;;;24.67;31.14;101212.56;5057653;28;847;-29
2021/09/22 06:00:44;;;;;;;;;;;;;;;24.65;31.28;101221.78;5056865;28;1934;-30
2021/09/22 06:03:10;;;;;;;;;;;;;;;24.58;30.87;101211.66;5055434;28;795;-32
2021/09/22 06:05:35;;;;;;;;;;;;;;;24.56;31.31;101202.03;5056654;28;904;-31
2021/09/22 06:08:03;;;;;;;;;;;;;;;24.75;31.14;101200.19;5056116;28;948;-31
2021/09/22 06:10:29;;;;;;;;;;;;;;;24.80;31.47;101198.72;5056433;28;876;-29
2021/09/22 06:12:54;;;;;;;;;;;;;;;24.88;32.71;101197.06;5051295;28;925;-29
2021/09/22 06:15:19;;;;;;;;;;;;;;;25.13;31.82;101198.13;5037470;28;792;-28
2021/09/22 06:17:44;;;;;;;;;;;;;;;25.36;30.85;101197.59;5036464;28;824;-28
2021/09/22 06:20:10;;;;;;;;;;;;;;;25.47;30.59;101193.78;5037197;28;800;-28
2021/09/22 06:22:35;;;;;;;;;;;;;;;25.60;30.65;101187.09;5037834;28;1983;-27
2021/09/22 06:25:01;;;;;;;;;;;;;;;25.62;30.72;101199.41;5037193;28;833;-31
2021/09/22 06:27:26;;;;;;;;;;;;;;;25.60;31.00;101206.81;5036521;28;827;-33
2021/09/22 06:29:51;;;;;;;;;;;;;;;25.61;31.06;101204.97;5036825;28;861;-26
2021/09/22 06:32:17;;;;;;;;;;;;;;;25.73;30.55;101200.13;5036423;28;881;-36
2021/09/22 06:34:42;;;;;;;;;;;;;;;25.73;30.65;101197.44;5036455;28;1120;-28
2021/09/22 06:37:08;;;;;;;;;;;;;;;25.72;30.48;101196.63;5037242;28;959;-25
2021/09/22 06:39:33;;;;;;;;;;;;;;;25.67;30.38;101185.47;5036974;28;775;-34
2021/09/22 06:41:58;;;;;;;;;;;;;;;25.92;30.18;101193.66;5036665;28;1906;-28
2021/09/22 06:44:24;;;;;;;;;;;;;;;26.04;30.42;101178.00;5035806;28;851;-27
2021/09/22 06:46:52;;;;;;;;;;;;;;;26.10;30.17;101181.88;5039177;28;1116;-33
2021/09/22 06:49:17;;;;;;;;;;;;;;;26.13;30.18;101173.44;5054703;28;869;-26
2021/09/22 06:51:42;;;;;;;;;;;;;;;26.16;30.26;101165.03;5054760;28;1014;-26
2021/09/22 06:54:08;;;;;;;;;;;;;;;26.25;30.53;101163.19;5055828;28;1100;-26
2021/09/22 06:56:33;;;;;;;;;;;;;;;26.30;30.33;101168.94;5056026;28;803;-28
2021/09/22 06:58:58;;;;;;;;;;;;;;;26.34;30.11;101167.59;5056002;28;835;-27
2021/09/22 07:01:24;;;;;;;;;;;;;;;26.32;30.28;101171.47;5056225;28;2231;-33
2021/09/22 07:03:49;;;;;;;;;;;;;;;26.30;29.89;101179.72;5056018;28;748;-26
2021/09/22 07:06:14;;;;;;;;;;;;;;;26.22;29.83;101177.03;5054370;28;1028;-34
2021/09/22 07:08:40;;;;;;;;;;;;;;;25.97;29.42;101182.38;5055949;28;780;-35
2021/09/22 07:11:06;;;;;;;;;;;;;;;25.85;29.74;101187.22;5054246;28;807;-30
2021/09/22 07:13:33;;;;;;;;;;;;;;;25.85;30.02;101184.50;5055707;28;851;-31
2021/09/22 07:15:59;;;;;;;;;;;;;;;25.98;29.57;101179.50;5055462;28;827;-34
2021/09/22 07:18:24;;;;;;;;;;;;;;;26.02;29.55;101188.97;5055681;28;744;-26
2021/09/22 07:20:49;;;;;;;;;;;;;;;26.11;29.64;101195.19;5055741;28;1987;-26
2021/09/22 07:23:15;;;;;;;;;;;;;;;26.21;28.97;101194.22;5054093;28;971;-26
2021/09/22 07:25:40;;;;;;;;;;;;;;;26.17;29.27;101188.31;5053380;28;868;-31
2021/09/22 07:28:05;;;;;;;;;;;;;;;26.17;29.02;101177.53;5056177;28;867;-29
2021/09/22 07:30:31;;;;;;;;;;;;;;;26.25;28.82;101190.16;5055756;28;496;-26
2021/09/22 07:32:59;;;;;;;;;;;;;;;26.15;28.93;101182.22;5055254;28;847;-28
2021/09/22 07:35:24;;;;;;;;;;;;;;;26.16;28.92;101170.41;5055239;28;812;-26
2021/09/22 07:37:50;;;;;;;;;;;;;;;26.23;28.77;101165.22;5053784;28;939;-33
2021/09/22 07:40:15;;;;;;;;;;;;;;;26.16;28.63;101163.19;5055376;28;737;-26
2021/09/22 07:42:40;;;;;;;;;;;;;;;26.11;28.78;101162.84;5054609;28;1969;-33
2021/09/22 07:45:06;;;;;;;;;;;;;;;26.13;28.92;101155.44;5055580;28;807;-31
2021/09/22 07:47:31;;;;;;;;;;;;;;;26.22;28.81;101159.00;5046370;28;1080;-26
2021/09/22 07:49:57;;;;;;;;;;;;;;;26.14;29.19;101157.09;5035799;28;807;-33
2021/09/22 07:52:22;;;;;;;;;;;;;;;25.97;29.04;101158.09;5040245;28;1220;-37
2021/09/22 07:54:47;;;;;;;;;;;;;;;26.06;29.23;101159.78;5054650;28;1417;-27
2021/09/22 07:57:12;;;;;;;;;;;;;;;25.99;28.91;101158.78;5055237;28;785;-26
2021/09/22 07:59:38;;;;;;;;;;;;;;;26.04;28.88;101146.47;5054866;28;765;-26
2021/09/22 08:02:03;;;;;;;;;;;;;;;25.99;28.74;101146.13;5054212;28;1914;-27
2021/09/22 08:04:29;;;;;;;;;;;;;;;26.22;28.67;101141.97;5055567;28;800;-26
2021/09/22 08:06:56;;;;;;;;;;;;;;;26.10;28.61;101130.66;5054487;28;952;-26
2021/09/22 08:09:21;;;;;;;;;;;;;;;26.17;28.74;101129.00;5054651;28;767;-29
2021/09/22 08:11:53;;;;;;;;;;;;;;;26.21;28.63;101124.94;5055282;28;798;-34
2021/09/22 08:14:18;;;;;;;;;;;;;;;26.26;28.74;101117.19;5054755;28;867;-31
2021/09/22 08:16:47;;;;;;;;;;;;;;;26.23;28.83;101124.75;5054087;28;808;-37
2021/09/22 08:19:12;;;;;;;;;;;;;;;26.32;28.58;101122.91;5054881;28;835;-37
2021/09/22 08:21:38;;;;;;;;;;;;;;;26.32;28.34;101115.69;5052359;28;1975;-28
2021/09/22 08:24:03;;;;;;;;;;;;;;;26.39;28.31;101111.31;5044274;28;1207;-32
2021/09/22 08:26:28;;;;;;;;;;;;;;;26.36;28.29;101114.34;5045531;28;1262;-30
2021/09/22 08:28:54;;;;;;;;;;;;;;;26.41;28.23;101103.03;5044809;28;1174;-35
2021/09/22 08:31:19;;;;;;;;;;;;;;;26.58;28.17;101103.88;5026270;28;1175;-36
2021/09/22 08:33:45;;;;;;;;;;;;;;;26.46;28.51;101100.69;5044099;28;1230;-27
2021/09/22 08:36:10;;;;;;;;;;;;;;;26.49;28.39;101094.13;5044808;28;1159;-33
2021/09/22 08:38:36;;;;;;;;;;;;;;;26.67;27.79;101093.94;5044658;28;1239;-32
2021/09/22 08:41:01;;;;;;;;;;;;;;;26.69;28.25;101086.50;5048148;28;1906;-26
2021/09/22 08:43:27;;;;;;;;;;;;;;;26.60;28.59;101085.66;5045829;28;1179;-32
2021/09/22 08:45:52;;;;;;;;;;;;;;;26.64;28.59;101083.47;5036789;28;823;-29
2021/09/22 08:48:17;;;;;;;;;;;;;;;26.74;28.30;101076.00;5039951;28;1041;-26
2021/09/22 08:50:43;;;;;;;;;;;;;;;26.72;28.29;101079.91;5034425;28;875;-31
2021/09/22 08:53:08;;;;;;;;;;;;;;;26.73;28.67;101077.03;5034535;28;1260;-27
2021/09/22 08:55:33;;;;;;;;;;;;;;;26.62;28.50;101069.31;5034936;28;755;-31
2021/09/22 08:58:00;;;;;;;;;;;;;;;26.82;28.11;101060.81;5034506;28;801;-33
2021/09/22 09:00:25;;;;;;;;;;;;;;;26.98;27.54;101068.88;5034674;28;1984;-26
2021/09/22 09:02:50;;;;;;;;;;;;;;;26.98;27.93;101058.06;5034680;28;899;-26
2021/09/22 09:05:17;;;;;;;;;;;;;;;26.95;27.73;101065.66;5034692;28;772;-30
2021/09/22 09:08:00;;;;;;;;;;;;;;;26.90;28.25;101067.03;5047718;28;1114;-29
2021/09/22 09:10:27;;;;;;;;;;;;;;;26.96;27.67;101067.38;5053064;28;775;-33
2021/09/22 09:13:05;;;;;;;;;;;;;;;26.98;27.82;101062.63;5054684;28;780;-28
2021/09/22 09:15:35;;;;;;;;;;;;;;;26.97;28.12;101066.34;5054542;28;775;-32
2021/09/22 09:18:01;;;;;;;;;;;;;;;27.01;27.77;101054.16;5054388;28;814;-29
2021/09/22 09:20:27;;;;;;;;;;;;;;;26.98;27.80;101049.97;5054196;28;1902;-32
2021/09/22 09:23:02;;;;;;;;;;;;;;;27.11;27.62;101045.91;5052730;28;995;-34
2021/09/22 09:25:28;;;;;;;;;;;;;;;27.13;27.54;101044.69;5054927;28;823;-29
2021/09/22 09:27:53;;;;;;;;;;;;;;;27.07;27.68;101050.81;5054430;28;859;-37
2021/09/22 09:30:20;;;;;;;;;;;;;;;27.15;26.99;101044.53;5054500;28;831;-26
2021/09/22 09:32:45;;;;;;;;;;;;;;;27.05;27.19;101039.34;5053426;28;1208;-34
2021/09/22 09:35:12;;;;;;;;;;;;;;;27.08;27.29;101043.53;5058274;28;764;-30
2021/09/22 09:37:38;;;;;;;;;;;;;;;27.02;26.55;101032.44;5043384;28;928;-26
2021/09/22 09:40:22;;;;;;;;;;;;;;;27.12;26.91;101024.13;5037791;28;933;-30
2021/09/22 09:42:48;;;;;;;;;;;;;;;27.05;26.86;101025.00;5038164;28;1949;-28
2021/09/22 09:45:13;;;;;;;;;;;;;;;27.14;26.64;101022.06;5037745;28;780;-26
2021/09/22 09:47:40;;;;;;;;;;;;;;;27.20;26.53;101017.00;5047394;28;1085;-26
2021/09/22 09:50:15;;;;;;;;;;;;;;;27.25;26.30;101015.44;5057282;28;823;-27
2021/09/22 09:52:56;;;;;;;;;;;;;;;27.18;26.68;101000.97;5042204;28;1207;-32
2021/09/22 09:55:23;;;;;;;;;;;;;;;27.26;26.28;101006.31;5037660;28;800;-28
2021/09/22 09:57:49;;;;;;;;;;;;;;;27.22;26.43;100991.50;5037481;28;811;-29
2021/09/22 10:00:15;;;;;;;;;;;;;;;27.41;25.80;100989.34;5037034;28;771;-31
2021/09/22 10:02:41;;;;;;;;;;;;;;;27.36;26.36;100995.28;5037589;28;1977;-30
2021/09/22 10:05:06;;;;;;;;;;;;;;;27.37;26.71;100996.13;5037230;28;763;-31
2021/09/22 10:07:35;;;;;;;;;;;;;;;27.18;27.24;100997.41;5037647;28;1030;-28
2021/09/22 10:10:00;;;;;;;;;;;;;;;27.17;27.43;100993.88;5036560;28;890;-34
2021/09/22 10:12:25;;;;;;;;;;;;;;;27.23;26.58;100982.38;5037239;28;815;-35
2021/09/22 10:14:51;;;;;;;;;;;;;;;27.23;27.54;100984.22;5037172;28;783;-36
2021/09/22 10:17:16;;;;;;;;;;;;;;;27.38;27.01;100989.69;5036178;28;799;-34
2021/09/22 10:19:42;;;;;;;;;;;;;;;27.40;26.03;100984.97;5037132;28;752;-27
2021/09/22 10:22:08;;;;;;;;;;;;;;;27.33;26.26;100981.28;5037345;28;1910;-28
2021/09/22 10:24:33;;;;;;;;;;;;;;;27.19;26.05;100981.06;5057162;28;775;-35
2021/09/22 10:26:58;;;;;;;;;;;;;;;27.10;26.58;100977.56;5057313;28;772;-31
2021/09/22 10:29:27;;;;;;;;;;;;;;;27.21;26.59;100980.88;5055699;28;771;-34
2021/09/22 10:31:53;;;;;;;;;;;;;;;27.24;26.42;100977.81;5056418;28;906;-36
2021/09/22 10:34:45;;;;;;;;;;;;;;;27.12;26.73;100978.22;5056900;28;759;-35
2021/09/22 10:37:29;;;;;;;;;;;;;;;27.14;26.57;100981.56;5052049;28;1336;-35
2021/09/22 10:39:54;;;;;;;;;;;;;;;27.21;25.70;100987.09;5056308;28;803;-26
2021/09/22 10:42:27;;;;;;;;;;;;;;;27.15;26.29;100974.31;5056111;28;1980;-36
2021/09/22 10:45:10;;;;;;;;;;;;;;;27.19;26.05;100970.25;5056272;28;842;-28
2021/09/22 10:47:35;;;;;;;;;;;;;;;27.24;26.25;100959.72;5047464;28;1069;-28
2021/09/22 10:50:00;;;;;;;;;;;;;;;27.14;25.82;100964.53;5036641;28;835;-36
2021/09/22 10:52:37;;;;;;;;;;;;;;;27.10;26.21;100953.25;5046255;28;1223;-35
2021/09/22 10:55:06;;;;;;;;;;;;;;;27.18;25.84;100951.50;5056488;28;852;-28
2021/09/22 10:57:31;;;;;;;;;;;;;;;27.16;26.13;100950.88;5056457;28;783;-31
2021/09/22 11:00:10;;;;;;;;;;;;;;;27.19;25.74;100954.06;5056004;28;799;-34
2021/09/22 11:02:44;;;;;;;;;;;;;;;27.06;26.33;100951.91;5055961;28;1921;-35
2021/09/22 11:05:09;;;;;;;;;;;;;;;26.80;26.20;100949.50;5055902;28;853;-27
2021/09/22 11:07:53;;;;;;;;;;;;;;;26.91;25.56;100954.50;5042167;28;1034;-27
2021/09/22 11:10:31;;;;;;;;;;;;;;;26.88;25.80;100950.31;5036127;28;815;-25
2021/09/22 11:13:15;;;;;;;;;;;;;;;26.85;25.56;100947.09;5035513;28;780;-27
2021/09/22 11:15:40;;;;;;;;;;;;;;;26.80;25.59;100933.28;5035685;28;799;-29
2021/09/22 11:18:05;;;;;;;;;;;;;;;26.73;26.05;100925.06;5018463;28;1261;-32
2021/09/22 11:20:31;;;;;;;;;;;;;;;26.94;25.22;100923.63;5034922;28;1973;-30
2021/09/22 11:23:10;;;;;;;;;;;;;;;26.84;25.28;100915.75;5049357;28;972;-32
2021/09/22 11:25:35;;;;;;;;;;;;;;;26.76;25.47;100922.00;5055617;28;792;-27
2021/09/22 11:28:04;;;;;;;;;;;;;;;26.75;25.22;100915.78;5055888;28;760;-33
2021/09/22 11:30:29;;;;;;;;;;;;;;;26.84;25.04;100924.66;5055250;28;816;-27
2021/09/22 11:32:55;;;;;;;;;;;;;;;26.74;24.91;100919.50;5055234;28;752;-27
2021/09/22 11:35:23;;;;;;;;;;;;;;;26.76;25.17;100917.47;5056164;28;816;-30
2021/09/22 11:37:52;;;;;;;;;;;;;;;26.72;25.12;100921.53;5053524;28;990;-28
2021/09/22 11:40:17;;;;;;;;;;;;;;;26.70;25.67;100915.47;5055486;28;732;-27
2021/09/22 11:42:53;;;;;;;;;;;;;;;26.75;25.60;100917.63;5055472;28;1906;-27
2021/09/22 11:45:25;;;;;;;;;;;;;;;26.77;25.75;100907.50;5055213;28;767;-27
2021/09/22 11:47:50;;;;;;;;;;;;;;;26.85;25.73;100906.63;5044499;28;1096;-29
2021/09/22 11:50:42;;;;;;;;;;;;;;;26.94;25.62;100910.97;5035572;28;871;-27
2021/09/22 11:53:07;;;;;;;;;;;;;;;26.85;25.73;100901.22;5041942;28;1589;-29
2021/09/22 11:55:33;;;;;;;;;;;;;;;26.83;25.81;100900.56;5055087;28;807;-38
2021/09/22 11:58:02;;;;;;;;;;;;;;;23.00;30.13;100888.56;5055463;28;764;-37
2021/09/22 12:00:28;;;;;;;;;;;;;;;23.24;29.95;100884.44;5055105;28;836;-37
2021/09/22 12:02:53;;;;;;;;;;;;;;;22.65;31.34;100881.31;5055123;28;1973;-38
2021/09/22 12:05:19;;;;;;;;;;;;;;;20.98;34.22;100884.09;5036921;28;847;-37
2021/09/22 12:07:45;;;;;;;;;;;;;;;20.90;34.33;100880.25;5041113;28;983;-38
2021/09/22 12:10:10;;;;;;;;;;;;;;;23.12;30.74;100883.00;5035452;28;792;-31
2021/09/22 12:12:37;;;;;;;;;;;;;;;24.83;28.20;100885.44;5017703;28;788;-30
2021/09/22 12:15:02;;;;;;;;;;;;;;;25.75;26.99;100894.50;5034588;28;784;-29
2021/09/22 12:17:28;;;;;;;;;;;;;;;26.10;26.73;100890.72;5034960;28;792;-28
2021/09/22 12:19:54;;;;;;;;;;;;;;;26.40;26.57;100881.03;5035161;28;764;-34
2021/09/22 12:22:20;;;;;;;;;;;;;;;26.60;26.35;100877.06;5027975;28;1906;-33
2021/09/22 12:24:45;;;;;;;;;;;;;;;26.70;26.46;100876.84;5055736;28;783;-29
2021/09/22 12:27:18;;;;;;;;;;;;;;;26.73;27.54;100876.50;5038051;28;791;-29
2021/09/22 12:29:53;;;;;;;;;;;;;;;26.86;28.04;100867.84;5054998;28;819;-34
2021/09/22 12:32:18;;;;;;;;;;;;;;;26.90;28.34;100866.44;5055462;28;1198;-29
2021/09/22 12:34:43;;;;;;;;;;;;;;;26.94;29.17;100864.22;5042189;28;1190;-31
2021/09/22 12:37:14;;;;;;;;;;;;;;;26.99;29.46;100864.53;5036035;28;955;-29
2021/09/22 12:39:39;;;;;;;;;;;;;;;27.05;30.02;100869.25;5035947;28;776;-28
2021/09/22 12:42:08;;;;;;;;;;;;;;;26.57;26.78;100864.78;5017376;28;1909;-33
2021/09/22 12:44:51;;;;;;;;;;;;;;;26.21;26.73;100868.78;5034919;28;847;-30
2021/09/22 12:47:17;;;;;;;;;;;;;;;25.73;27.19;100871.41;5035585;28;1093;-32
2021/09/22 12:49:43;;;;;;;;;;;;;;;25.71;27.31;100855.41;5035401;28;748;-29